This is the latest recevied weather packets stored in our database for station/object XE1GMR. If no packets are shown the sender has not sent any weather packets the latest 1 day(s).
| Time | Temp. | Humidity | Pressure | Rain* | Wind** | Luminosity | Snow |
|---|---|---|---|---|---|---|---|
| 1777994234 | 23.89° C | 54% | 1123.3 hPa | 0 mm | 1.34 m/s, 350° | 602 W/m² | - |
| 1777993932 | 23.89° C | 54% | 1123.6 hPa | 0 mm | 1.34 m/s, 220° | 585 W/m² | - |
| 1777993628 | 22.78° C | 56% | 1123.7 hPa | 0 mm | 0.89 m/s, 299° | 546 W/m² | - |
| 1777993326 | 23.33° C | 57% | 1123.6 hPa | 0 mm | 0.45 m/s, 102° | 507 W/m² | - |
| 1777993026 | 23.33° C | 55% | 1123.4 hPa | 0 mm | 0 m/s | 529 W/m² | - |
| 1777992725 | 23.33° C | 53% | 1123.7 hPa | 0 mm | 0 m/s | 533 W/m² | - |
| 1777992422 | 23.33° C | 56% | 1123.6 hPa | 0 mm | 0 m/s | 488 W/m² | - |
| 1777992120 | 23.33° C | 55% | 1123.4 hPa | 0 mm | 0 m/s | 447 W/m² | - |
| 1777991817 | 22.78° C | 57% | 1123.3 hPa | 0 mm | 0.45 m/s, 259° | 426 W/m² | - |
| 1777991514 | 22.78° C | 56% | 1123.4 hPa | 0 mm | 0 m/s | 396 W/m² | - |
| 1777991211 | 23.33° C | 58% | 1123.3 hPa | 0 mm | 0 m/s | 361 W/m² | - |
| 1777990908 | 23.89° C | 57% | 1123.5 hPa | 0 mm | 0 m/s | 333 W/m² | - |
| 1777990606 | 22.78° C | 57% | 1123.3 hPa | 0 mm | 0 m/s | 307 W/m² | - |
| 1777990303 | 21.67° C | 61% | 1123.6 hPa | 0 mm | 0 m/s | 273 W/m² | - |
| 1777989999 | 21.11° C | 63% | 1123.6 hPa | 0 mm | 0.45 m/s, 270° | 256 W/m² | - |
| 1777989696 | 20.56° C | 64% | 1123.4 hPa | 0 mm | 0 m/s | 250 W/m² | - |
| 1777989392 | 21.11° C | 63% | 1123.1 hPa | 0 mm | 0 m/s | 238 W/m² | - |
| 1777989089 | 20.56° C | 64% | 1123.3 hPa | 0 mm | 0 m/s | 207 W/m² | - |
| 1777988784 | 20° C | 66% | 1123.3 hPa | 0 mm | 0 m/s | 187 W/m² | - |
| 1777988482 | 18.89° C | 69% | 1123.4 hPa | 0 mm | 0 m/s | 173 W/m² | - |
| 1777988179 | 18.33° C | 69% | 1123.3 hPa | 0 mm | 0.45 m/s, 272° | 160 W/m² | - |
| 1777987874 | 17.78° C | 71% | 1123.2 hPa | 0 mm | 0.45 m/s, 271° | 146 W/m² | - |
| 1777987571 | 17.22° C | 73% | 1123.1 hPa | 0 mm | 0.45 m/s, 272° | 131 W/m² | - |
| 1777987269 | 17.22° C | 72% | 1123.1 hPa | 0 mm | 0.45 m/s, 282° | 126 W/m² | - |
| 1777986965 | 17.22° C | 73% | 1122.9 hPa | 0 mm | 0.45 m/s, 319° | 105 W/m² | - |
* Rain latest hour (hover to see other rain measurements)
** Current wind speed in m/s (hover to see current wind gust speed)